createdAt,value
2022-08-23T00:01:23.870Z,16.45
2022-08-23T00:04:19.549Z,16.52
2022-08-23T00:07:12.093Z,16.51
2022-08-23T00:09:59.267Z,16.44
2022-08-23T00:12:47.223Z,16.37
2022-08-23T00:15:34.094Z,16.29
2022-08-23T00:18:24.401Z,16.40
2022-08-23T00:21:13.155Z,16.50
2022-08-23T00:24:00.001Z,16.22
2022-08-23T00:27:02.173Z,16.29
2022-08-23T00:29:52.377Z,16.15
2022-08-23T00:32:40.744Z,16.21
2022-08-23T00:35:28.137Z,16.12
2022-08-23T00:38:32.857Z,16.11
2022-08-23T00:41:22.873Z,16.04
2022-08-23T00:44:36.316Z,15.86
2022-08-23T00:47:41.336Z,15.75
2022-08-23T00:50:56.577Z,15.69
2022-08-23T00:53:52.264Z,15.84
2022-08-23T00:56:39.834Z,15.75
2022-08-23T00:59:26.693Z,15.80
2022-08-23T01:02:14.707Z,15.81
2022-08-23T01:05:03.463Z,15.59
2022-08-23T01:07:57.542Z,15.62
2022-08-23T01:10:54.576Z,15.57
2022-08-23T01:13:50.124Z,15.55
2022-08-23T01:16:45.745Z,15.56
2022-08-23T01:19:36.794Z,15.34
2022-08-23T01:22:42.209Z,15.46
2022-08-23T01:25:34.968Z,15.48
2022-08-23T01:28:21.870Z,15.54
2022-08-23T01:31:09.734Z,15.49
2022-08-23T01:34:11.142Z,15.60
2022-08-23T01:36:59.201Z,15.45
2022-08-23T01:39:46.259Z,15.43
2022-08-23T01:42:33.284Z,15.45
2022-08-23T01:45:20.538Z,15.35
2022-08-23T01:48:07.641Z,15.28
2022-08-23T01:50:54.568Z,15.30
2022-08-23T01:53:43.476Z,14.99
2022-08-23T01:56:38.982Z,14.97
2022-08-23T01:59:28.467Z,15.08
2022-08-23T02:02:15.692Z,15.12
2022-08-23T02:05:02.901Z,15.06
2022-08-23T02:07:50.131Z,14.90
2022-08-23T02:10:38.317Z,14.85
2022-08-23T02:13:25.285Z,14.82
2022-08-23T02:16:14.947Z,14.81
2022-08-23T02:19:05.961Z,14.88
2022-08-23T02:21:53.091Z,14.88
2022-08-23T02:24:43.650Z,14.88
2022-08-23T02:27:30.591Z,14.91
2022-08-23T02:30:17.834Z,14.67
2022-08-23T02:33:05.029Z,14.74
2022-08-23T02:35:34.313Z,14.74
2022-08-23T02:38:12.321Z,14.75
2022-08-23T02:40:40.525Z,14.78
2022-08-23T02:43:07.458Z,14.67
2022-08-23T02:45:36.850Z,14.75
2022-08-23T02:48:05.017Z,14.84
2022-08-23T02:50:40.770Z,14.74
2022-08-23T02:53:09.735Z,14.78
2022-08-23T02:55:37.600Z,14.74
2022-08-23T02:58:05.565Z,14.74
2022-08-23T03:00:32.256Z,14.67
2022-08-23T03:02:58.968Z,14.68
2022-08-23T03:05:26.759Z,14.62
2022-08-23T03:07:53.507Z,14.62
2022-08-23T03:10:23.967Z,14.61
2022-08-23T03:12:57.221Z,14.61
2022-08-23T03:15:27.215Z,14.38
2022-08-23T03:17:56.130Z,14.28
2022-08-23T03:20:26.076Z,14.24
2022-08-23T03:22:54.407Z,14.23
2022-08-23T03:25:22.948Z,14.16
2022-08-23T03:28:09.046Z,14.21
2022-08-23T03:30:40.950Z,14.20
2022-08-23T03:33:08.955Z,14.09
2022-08-23T03:35:35.782Z,13.99
2022-08-23T03:38:05.724Z,14.06
2022-08-23T03:40:32.407Z,14.10
2022-08-23T03:43:01.323Z,14.17
2022-08-23T03:45:29.619Z,14.17
2022-08-23T03:47:56.289Z,14.22
2022-08-23T03:50:23.637Z,14.27
2022-08-23T03:52:53.634Z,14.16
2022-08-23T03:55:20.623Z,14.17
2022-08-23T03:57:53.219Z,14.10
2022-08-23T04:00:21.568Z,14.00
2022-08-23T04:02:53.808Z,14.04
2022-08-23T04:05:22.167Z,13.75
2022-08-23T04:07:57.581Z,13.85
2022-08-23T04:10:29.143Z,13.84
2022-08-23T04:12:57.984Z,13.83
2022-08-23T04:15:24.855Z,13.86
2022-08-23T04:17:51.922Z,13.70
2022-08-23T04:20:21.000Z,13.81
2022-08-23T04:22:56.425Z,13.70
2022-08-23T04:25:33.779Z,13.73
2022-08-23T04:28:02.566Z,13.72
2022-08-23T04:30:29.983Z,13.67
2022-08-23T04:32:57.273Z,13.67
2022-08-23T04:35:27.241Z,13.74
2022-08-23T04:37:54.232Z,13.64
2022-08-23T04:40:44.207Z,13.90
2022-08-23T04:43:15.991Z,14.07
2022-08-23T04:45:42.938Z,14.06
2022-08-23T04:48:22.358Z,13.98
2022-08-23T04:50:50.601Z,14.03
2022-08-23T04:53:19.311Z,14.22
2022-08-23T04:55:56.424Z,14.10
2022-08-23T04:58:23.034Z,14.26
2022-08-23T05:00:52.827Z,14.35
2022-08-23T05:03:27.454Z,14.40
2022-08-23T05:05:58.082Z,14.30
2022-08-23T05:08:32.344Z,14.40
2022-08-23T05:11:09.386Z,14.44
2022-08-23T05:13:39.426Z,14.55
2022-08-23T05:16:10.866Z,14.57
2022-08-23T05:18:49.957Z,14.59
2022-08-23T05:21:19.538Z,14.73
2022-08-23T05:23:50.886Z,14.76
2022-08-23T05:26:22.362Z,15.25
2022-08-23T05:28:50.204Z,15.59
2022-08-23T05:31:26.400Z,15.61
2022-08-23T05:33:55.078Z,15.48
2022-08-23T05:36:37.767Z,15.39
2022-08-23T05:39:24.132Z,15.40
2022-08-23T05:42:04.693Z,15.74
2022-08-23T05:44:34.317Z,16.03
2022-08-23T05:47:12.445Z,16.44
2022-08-23T05:50:04.358Z,16.52
2022-08-23T05:52:34.560Z,16.63
2022-08-23T05:55:01.890Z,17.07
2022-08-23T05:57:40.783Z,17.80
2022-08-23T06:00:15.567Z,18.09
2022-08-23T06:02:57.348Z,19.44
2022-08-23T06:05:24.029Z,19.91
2022-08-23T06:07:51.034Z,20.19
2022-08-23T06:10:21.460Z,19.19
2022-08-23T06:13:04.763Z,18.27
2022-08-23T06:15:32.420Z,18.00
2022-08-23T06:17:59.465Z,17.79
2022-08-23T06:20:28.664Z,17.60
2022-08-23T06:23:00.568Z,17.56
2022-08-23T06:25:30.340Z,17.29
2022-08-23T06:28:06.955Z,17.28
2022-08-23T06:30:37.017Z,17.46
2022-08-23T06:33:15.603Z,17.58
2022-08-23T06:36:11.849Z,17.57
2022-08-23T06:39:06.545Z,17.61
2022-08-23T06:41:48.532Z,17.65
2022-08-23T06:44:27.392Z,17.74
2022-08-23T06:47:05.070Z,17.79
2022-08-23T06:49:32.041Z,17.85
2022-08-23T06:52:04.193Z,17.98
2022-08-23T06:54:49.421Z,18.40
2022-08-23T06:57:38.766Z,18.95
2022-08-23T07:00:26.244Z,20.64
2022-08-23T07:03:05.263Z,26.45
2022-08-23T07:06:10.344Z,30.21
2022-08-23T07:08:39.608Z,31.69
2022-08-23T07:11:08.167Z,32.12
2022-08-23T07:13:39.838Z,33.71
2022-08-23T07:16:07.190Z,33.01
2022-08-23T07:18:36.801Z,33.90
2022-08-23T07:21:04.728Z,35.81
2022-08-23T07:23:33.684Z,36.01
2022-08-23T07:26:07.334Z,36.46
2022-08-23T07:28:34.373Z,36.71
2022-08-23T07:31:14.975Z,37.33
2022-08-23T07:33:45.758Z,36.73
2022-08-23T07:36:20.938Z,38.18
2022-08-23T07:38:51.661Z,39.39
2022-08-23T07:41:20.488Z,38.95
2022-08-23T07:43:48.533Z,39.43
2022-08-23T07:46:16.074Z,38.72
2022-08-23T07:48:54.001Z,39.01
2022-08-23T07:51:36.075Z,39.56
2022-08-23T07:54:10.747Z,38.79
2022-08-23T07:56:48.559Z,38.19
2022-08-23T07:59:28.006Z,37.35
2022-08-23T08:02:10.667Z,38.05
2022-08-23T08:04:37.498Z,39.83
2022-08-23T08:07:18.969Z,40.93
2022-08-23T08:09:55.177Z,41.16
2022-08-23T08:12:23.831Z,41.68
2022-08-23T08:14:53.589Z,43.55
2022-08-23T08:17:27.550Z,40.84
2022-08-23T08:20:12.214Z,40.82
2022-08-23T08:22:46.693Z,42.69
2022-08-23T08:25:14.608Z,44.53
2022-08-23T08:27:42.907Z,42.41
2022-08-23T08:30:11.813Z,43.44
2022-08-23T08:32:47.029Z,43.53
2022-08-23T08:35:15.290Z,42.30
2022-08-23T08:37:46.185Z,42.23
2022-08-23T08:40:24.958Z,44.36
2022-08-23T08:43:10.032Z,45.86
2022-08-23T08:46:05.193Z,46.48
2022-08-23T08:48:56.983Z,46.15
2022-08-23T08:51:36.287Z,47.33
2022-08-23T08:54:08.759Z,48.79
2022-08-23T08:56:46.793Z,49.12
2022-08-23T08:59:37.636Z,46.05
2022-08-23T09:02:07.305Z,47.10
2022-08-23T09:04:54.478Z,47.79
2022-08-23T09:07:56.378Z,49.13
2022-08-23T09:10:54.112Z,49.37
2022-08-23T09:13:53.411Z,48.40
2022-08-23T09:16:38.852Z,45.88
2022-08-23T09:19:08.695Z,45.41
2022-08-23T09:21:47.858Z,45.87
2022-08-23T09:24:14.722Z,48.60
2022-08-23T09:26:57.605Z,49.35
2022-08-23T09:29:28.030Z,48.53
2022-08-23T09:31:58.241Z,50.34
2022-08-23T09:34:30.504Z,52.31
2022-08-23T09:37:09.840Z,50.82
2022-08-23T09:39:42.232Z,49.84
2022-08-23T09:42:37.116Z,45.48
2022-08-23T09:45:35.146Z,42.49
2022-08-23T09:48:04.991Z,44.23
2022-08-23T09:50:45.503Z,46.35
2022-08-23T09:53:16.027Z,47.90
2022-08-23T09:55:49.981Z,50.29
2022-08-23T09:58:31.946Z,52.01
2022-08-23T10:01:27.061Z,53.04
2022-08-23T10:04:10.316Z,51.75
2022-08-23T10:06:38.060Z,51.38
2022-08-23T10:09:08.842Z,50.68
2022-08-23T10:11:44.844Z,51.82
2022-08-23T10:14:15.213Z,54.18
2022-08-23T10:17:10.246Z,52.02
2022-08-23T10:19:37.461Z,52.98
2022-08-23T10:22:12.202Z,51.92
2022-08-23T10:24:55.126Z,52.66
2022-08-23T10:28:10.289Z,48.81
2022-08-23T10:30:57.897Z,47.85
2022-08-23T10:33:27.662Z,50.19
2022-08-23T10:36:36.113Z,53.02
2022-08-23T10:39:11.495Z,52.87
2022-08-23T10:41:49.604Z,50.99
2022-08-23T10:44:41.081Z,49.91
2022-08-23T10:47:30.515Z,50.54
2022-08-23T10:50:00.214Z,52.25
2022-08-23T10:52:39.027Z,50.95
2022-08-23T10:55:17.571Z,52.10
2022-08-23T10:57:48.588Z,48.84
2022-08-23T11:00:27.285Z,40.41
2022-08-23T11:03:24.409Z,35.76
2022-08-23T11:06:27.408Z,33.00
2022-08-23T11:09:21.288Z,31.08
2022-08-23T11:12:22.232Z,29.97
2022-08-23T11:14:54.646Z,29.30
2022-08-23T11:17:26.954Z,28.72
2022-08-23T11:20:00.407Z,28.98
2022-08-23T11:22:53.651Z,28.89
2022-08-23T11:25:22.848Z,29.09
2022-08-23T11:27:49.543Z,29.16
2022-08-23T11:30:34.513Z,28.72
2022-08-23T11:33:34.613Z,28.39
2022-08-23T11:36:11.342Z,27.36
2022-08-23T11:38:48.272Z,26.66
2022-08-23T11:41:22.778Z,26.65
2022-08-23T11:44:06.308Z,26.94
2022-08-23T11:46:54.446Z,27.35
2022-08-23T11:49:30.067Z,27.40
2022-08-23T11:52:05.781Z,26.86
2022-08-23T11:54:59.864Z,26.85
2022-08-23T11:57:51.853Z,26.77
2022-08-23T12:00:26.939Z,27.00
2022-08-23T12:03:04.225Z,27.28
2022-08-23T12:05:33.887Z,27.48
2022-08-23T12:08:03.384Z,27.52
2022-08-23T12:10:42.268Z,27.58
2022-08-23T12:13:20.923Z,27.48
2022-08-23T12:16:19.318Z,27.16
2022-08-23T12:18:48.849Z,26.40
2022-08-23T12:21:34.406Z,26.37
2022-08-23T12:24:30.386Z,26.81
2022-08-23T12:27:32.329Z,27.09
2022-08-23T12:30:10.993Z,27.20
2022-08-23T12:32:44.346Z,27.10
2022-08-23T12:35:30.179Z,27.06
2022-08-23T12:38:19.803Z,27.24
2022-08-23T12:40:54.533Z,27.29
2022-08-23T12:43:29.186Z,27.29
2022-08-23T12:46:02.664Z,27.32
2022-08-23T12:48:44.987Z,27.35
2022-08-23T12:51:15.724Z,27.42
2022-08-23T12:53:46.939Z,27.51
2022-08-23T12:56:31.345Z,27.48
2022-08-23T12:59:14.045Z,27.52
2022-08-23T13:01:41.978Z,27.16
2022-08-23T13:04:13.164Z,26.98
2022-08-23T13:06:45.636Z,27.09
2022-08-23T13:09:12.099Z,26.94
2022-08-23T13:11:39.380Z,26.85
2022-08-23T13:14:45.024Z,26.65
2022-08-23T13:17:23.893Z,26.58
2022-08-23T13:20:11.458Z,26.98
2022-08-23T13:22:42.056Z,26.70
2022-08-23T13:25:32.303Z,26.82
2022-08-23T13:28:04.939Z,27.06
2022-08-23T13:30:39.029Z,27.11
2022-08-23T13:33:08.354Z,27.17
2022-08-23T13:35:38.179Z,27.12
2022-08-23T13:38:07.545Z,27.15
2022-08-23T13:40:52.745Z,27.19
2022-08-23T13:43:23.884Z,27.37
2022-08-23T13:45:55.544Z,27.23
2022-08-23T13:48:30.276Z,27.28
2022-08-23T13:51:28.717Z,27.18
2022-08-23T13:53:57.458Z,27.03
2022-08-23T13:56:27.771Z,27.14
2022-08-23T13:59:31.219Z,27.18
2022-08-23T14:02:06.660Z,27.08
2022-08-23T14:04:33.663Z,27.08
2022-08-23T14:07:02.585Z,27.13
2022-08-23T14:09:33.496Z,27.30
2022-08-23T14:12:09.668Z,27.40
2022-08-23T14:14:38.813Z,27.37
2022-08-23T14:17:06.432Z,27.34
2022-08-23T14:22:25.012Z,27.38
2022-08-23T14:24:51.570Z,27.28
2022-08-23T14:27:20.710Z,27.18
2022-08-23T14:29:49.735Z,27.11
2022-08-23T14:32:16.302Z,27.06
2022-08-23T14:34:43.111Z,27.12
2022-08-23T14:39:58.694Z,27.00
2022-08-23T14:42:27.862Z,27.07
2022-08-23T14:44:56.728Z,27.02
2022-08-23T14:47:23.282Z,26.92
2022-08-23T14:49:52.096Z,26.75
2022-08-23T14:52:21.127Z,26.65
2022-08-23T14:54:47.955Z,26.71
2022-08-23T14:57:17.062Z,26.85
2022-08-23T14:59:43.631Z,27.00
2022-08-23T15:02:12.976Z,27.14
2022-08-23T15:04:40.418Z,26.88
2022-08-23T15:07:22.194Z,26.90
2022-08-23T15:09:50.387Z,26.84
2022-08-23T15:15:14.840Z,27.01
2022-08-23T15:17:52.529Z,27.06
2022-08-23T15:20:23.286Z,27.06
2022-08-23T15:22:52.407Z,27.01
2022-08-23T15:25:29.565Z,26.80
2022-08-23T15:27:56.640Z,26.90
2022-08-23T15:30:24.002Z,26.90
2022-08-23T15:32:56.593Z,26.94
2022-08-23T15:35:24.407Z,26.93
2022-08-23T15:37:54.423Z,26.82
2022-08-23T15:40:23.413Z,26.96
2022-08-23T15:42:50.055Z,26.90
2022-08-23T15:45:19.486Z,26.86
2022-08-23T15:47:52.727Z,26.82
2022-08-23T15:50:22.742Z,26.84
2022-08-23T15:52:49.587Z,26.75
2022-08-23T15:55:17.645Z,26.78
2022-08-23T15:57:51.823Z,26.87
2022-08-23T16:00:20.856Z,27.00
2022-08-23T16:03:14.452Z,26.80
2022-08-23T16:05:34.264Z,26.85
2022-08-23T16:08:00.838Z,26.77
2022-08-23T16:10:29.966Z,26.77
2022-08-23T16:12:58.722Z,26.76
2022-08-23T16:15:25.270Z,26.71
2022-08-23T16:17:51.941Z,26.69
2022-08-23T16:20:18.540Z,26.73
2022-08-23T16:22:45.165Z,26.78
2022-08-23T16:25:11.804Z,26.69
2022-08-23T16:27:40.956Z,26.67
2022-08-23T16:30:08.531Z,26.61
2022-08-23T16:32:40.176Z,26.63
2022-08-23T16:35:07.303Z,26.55
2022-08-23T16:37:33.861Z,26.38
2022-08-23T16:40:06.114Z,26.40
2022-08-23T16:42:32.670Z,26.37
2022-08-23T16:45:04.196Z,26.35
2022-08-23T16:47:35.261Z,26.36
2022-08-23T16:50:04.850Z,26.35
2022-08-23T16:52:34.638Z,26.33
2022-08-23T16:55:07.952Z,26.37
2022-08-23T16:57:37.356Z,26.34
2022-08-23T17:00:08.053Z,26.31
2022-08-23T17:02:36.871Z,26.29
2022-08-23T17:05:06.395Z,26.24
2022-08-23T17:07:33.024Z,26.20
2022-08-23T17:10:02.036Z,26.09
2022-08-23T17:12:28.823Z,26.03
2022-08-23T17:14:57.830Z,25.93
2022-08-23T17:17:25.109Z,25.88
2022-08-23T17:19:54.230Z,25.82
2022-08-23T17:22:23.363Z,25.73
2022-08-23T17:24:53.395Z,25.57
2022-08-23T17:27:20.048Z,25.55
2022-08-23T17:29:46.645Z,25.54
2022-08-23T17:32:13.480Z,25.49
2022-08-23T17:34:42.203Z,25.44
2022-08-23T17:37:20.342Z,25.36
2022-08-23T17:39:47.753Z,25.25
2022-08-23T17:42:20.682Z,25.23
2022-08-23T17:44:49.688Z,25.21
2022-08-23T17:47:17.999Z,25.11
2022-08-23T17:49:46.575Z,25.07
2022-08-23T17:52:13.478Z,25.01
2022-08-23T17:54:41.198Z,24.96
2022-08-23T17:57:10.442Z,24.92
2022-08-23T17:59:37.725Z,24.85
2022-08-23T18:02:09.675Z,24.75
2022-08-23T18:04:36.443Z,24.66
2022-08-23T18:07:03.962Z,24.62
2022-08-23T18:09:30.918Z,24.57
2022-08-23T18:12:00.131Z,24.47
2022-08-23T18:14:30.058Z,24.40
2022-08-23T18:16:59.104Z,24.35
2022-08-23T18:19:25.688Z,24.29
2022-08-23T18:21:52.262Z,24.21
2022-08-23T18:24:19.257Z,24.13
2022-08-23T18:27:04.679Z,23.98
2022-08-23T18:29:36.383Z,23.92
2022-08-23T18:32:05.705Z,23.81
2022-08-23T18:34:33.555Z,23.76
2022-08-23T18:37:00.135Z,23.72
2022-08-23T18:39:31.577Z,23.73
2022-08-23T18:42:00.947Z,23.66
2022-08-23T18:44:30.009Z,23.59
2022-08-23T18:46:56.736Z,23.56
2022-08-23T18:49:23.326Z,23.50
2022-08-23T18:51:52.513Z,23.43
2022-08-23T18:54:21.387Z,23.38
2022-08-23T18:56:47.918Z,23.28
2022-08-23T18:59:17.081Z,23.29
2022-08-23T19:01:46.071Z,23.25
2022-08-23T19:04:13.696Z,23.19
2022-08-23T19:06:41.245Z,23.11
2022-08-23T19:09:09.067Z,23.08
2022-08-23T19:11:42.698Z,23.01
2022-08-23T19:14:12.471Z,22.99
2022-08-23T19:16:43.476Z,22.91
2022-08-23T19:19:12.381Z,22.86
2022-08-23T19:21:41.299Z,22.85
2022-08-23T19:24:07.937Z,22.80
2022-08-23T19:26:36.034Z,22.78
2022-08-23T19:29:06.197Z,22.73
2022-08-23T19:31:37.283Z,22.70
2022-08-23T19:34:07.713Z,22.59
2022-08-23T19:36:46.666Z,22.53
2022-08-23T19:39:15.259Z,22.45
2022-08-23T19:41:41.885Z,22.36
2022-08-23T19:44:08.650Z,22.26
2022-08-23T19:46:41.199Z,22.18
2022-08-23T19:49:10.219Z,22.11
2022-08-23T19:51:39.857Z,22.05
2022-08-23T19:54:11.469Z,21.89
2022-08-23T19:56:42.486Z,21.92
2022-08-23T19:59:12.274Z,21.88
2022-08-23T20:01:39.417Z,21.76
2022-08-23T20:04:06.593Z,21.81
2022-08-23T20:06:33.662Z,21.73
2022-08-23T20:09:00.494Z,21.71
2022-08-23T20:11:27.912Z,21.62
2022-08-23T20:13:58.209Z,21.58
2022-08-23T20:16:26.743Z,21.50
2022-08-23T20:18:56.284Z,21.46
2022-08-23T20:21:25.457Z,21.40
2022-08-23T20:24:01.546Z,21.25
2022-08-23T20:26:40.421Z,21.12
2022-08-23T20:29:10.147Z,21.11
2022-08-23T20:31:40.327Z,21.06
2022-08-23T20:34:08.785Z,20.93
2022-08-23T20:36:36.003Z,20.97
2022-08-23T20:39:05.208Z,20.85
2022-08-23T20:41:36.068Z,20.74
2022-08-23T20:44:04.272Z,20.65
2022-08-23T20:46:31.494Z,20.62
2022-08-23T20:48:58.340Z,20.49
2022-08-23T20:51:28.488Z,20.55
2022-08-23T20:53:56.100Z,20.50
2022-08-23T20:56:23.463Z,20.42
2022-08-23T20:58:50.855Z,20.47
2022-08-23T21:01:18.033Z,20.38
2022-08-23T21:04:03.443Z,20.35
2022-08-23T21:06:51.998Z,20.25
2022-08-23T21:09:42.728Z,20.06
2022-08-23T21:12:29.601Z,20.09
2022-08-23T21:15:16.551Z,20.12
2022-08-23T21:18:03.469Z,20.07
2022-08-23T21:20:51.142Z,20.00
2022-08-23T21:23:38.924Z,19.87
2022-08-23T21:26:25.968Z,19.81
2022-08-23T21:29:12.852Z,19.76
2022-08-23T21:31:59.728Z,19.89
2022-08-23T21:34:46.626Z,19.86
2022-08-23T21:37:35.368Z,19.77
2022-08-23T21:40:23.415Z,19.78
2022-08-23T21:43:10.377Z,19.68
2022-08-23T21:45:57.498Z,19.54
2022-08-23T21:48:44.372Z,19.47
2022-08-23T21:51:31.417Z,19.48
2022-08-23T21:54:21.808Z,19.41
2022-08-23T21:57:08.608Z,19.39
2022-08-23T21:59:55.518Z,19.24
2022-08-23T22:02:42.748Z,19.27
2022-08-23T22:05:29.667Z,19.27
2022-08-23T22:08:17.039Z,19.34
2022-08-23T22:11:07.104Z,19.15
2022-08-23T22:13:54.446Z,19.15
2022-08-23T22:16:43.999Z,19.16
2022-08-23T22:19:31.013Z,19.05
2022-08-23T22:22:17.898Z,19.04
2022-08-23T22:25:05.247Z,19.07
2022-08-23T22:27:52.925Z,18.85
2022-08-23T22:30:42.425Z,18.84
2022-08-23T22:33:32.216Z,18.72
2022-08-23T22:36:23.961Z,18.68
2022-08-23T22:39:12.337Z,18.75
2022-08-23T22:42:01.642Z,18.70
2022-08-23T22:44:51.100Z,18.74
2022-08-23T22:47:38.219Z,18.67
2022-08-23T22:50:25.091Z,18.51
2022-08-23T22:53:12.373Z,18.49
2022-08-23T22:56:01.853Z,18.37
2022-08-23T22:58:53.681Z,18.40
2022-08-23T23:01:44.258Z,18.35
2022-08-23T23:04:32.327Z,18.44
2022-08-23T23:07:39.180Z,18.51
2022-08-23T23:29:38.157Z,18.29
2022-08-23T23:32:27.561Z,18.23
2022-08-23T23:35:16.750Z,18.27
2022-08-23T23:38:07.148Z,18.22
2022-08-23T23:40:54.035Z,18.25
2022-08-23T23:43:41.047Z,18.13
2022-08-23T23:46:30.725Z,18.19
2022-08-23T23:49:51.463Z,18.18
2022-08-23T23:52:39.525Z,18.17
2022-08-23T23:55:26.451Z,18.16
2022-08-23T23:58:15.557Z,18.16
